createdAt,value
2022-11-30T00:01:23.585Z,98733.09
2022-11-30T00:03:54.673Z,98731.72
2022-11-30T00:06:23.548Z,98726.50
2022-11-30T00:08:55.347Z,98728.63
2022-11-30T00:11:23.870Z,98725.94
2022-11-30T00:13:50.593Z,98725.31
2022-11-30T00:16:17.085Z,98730.88
2022-11-30T00:18:43.605Z,98729.63
2022-11-30T00:21:12.984Z,98725.50
2022-11-30T00:23:42.882Z,98730.06
2022-11-30T00:26:12.083Z,98726.31
2022-11-30T00:28:39.773Z,98730.00
2022-11-30T00:31:10.182Z,98724.97
2022-11-30T00:33:38.217Z,98728.00
2022-11-30T00:36:08.100Z,98722.94
2022-11-30T00:38:34.976Z,98724.28
2022-11-30T00:41:02.028Z,98720.25
2022-11-30T00:43:29.118Z,98719.59
2022-11-30T00:45:55.820Z,98717.94
2022-11-30T00:48:22.292Z,98719.19
2022-11-30T00:50:49.979Z,98720.03
2022-11-30T00:53:17.055Z,98709.09
2022-11-30T00:55:44.537Z,98713.84
2022-11-30T00:58:11.943Z,98720.03
2022-11-30T01:00:38.405Z,98721.59
2022-11-30T01:03:05.678Z,98728.91
2022-11-30T01:05:35.738Z,98730.22
2022-11-30T01:08:03.878Z,98730.97
2022-11-30T01:10:30.623Z,98727.84
2022-11-30T01:12:57.221Z,98730.59
2022-11-30T01:15:23.752Z,98725.00
2022-11-30T01:17:50.302Z,98724.50
2022-11-30T01:20:16.754Z,98721.56
2022-11-30T01:22:43.238Z,98721.50
2022-11-30T01:25:09.823Z,98723.81
2022-11-30T01:27:36.301Z,98721.19
2022-11-30T01:30:03.041Z,98725.31
2022-11-30T01:32:29.462Z,98729.16
2022-11-30T01:34:55.881Z,98727.91
2022-11-30T01:37:23.103Z,98728.06
2022-11-30T01:39:49.558Z,98732.44
2022-11-30T01:42:18.699Z,98731.47
2022-11-30T01:44:56.999Z,98732.72
2022-11-30T01:47:29.611Z,98746.72
2022-11-30T01:50:13.454Z,98737.53
2022-11-30T01:52:43.509Z,98738.44
2022-11-30T01:55:12.644Z,98727.69
2022-11-30T01:57:43.877Z,98736.75
2022-11-30T02:00:14.343Z,98731.41
2022-11-30T02:02:55.054Z,98737.81
2022-11-30T02:05:24.505Z,98731.47
2022-11-30T02:07:51.444Z,98736.38
2022-11-30T02:10:23.679Z,98741.50
2022-11-30T02:13:21.222Z,98740.13
2022-11-30T02:16:02.963Z,98733.16
2022-11-30T02:18:39.658Z,98737.91
2022-11-30T02:21:30.069Z,98736.44
2022-11-30T02:24:17.873Z,98728.00
2022-11-30T02:27:13.881Z,98730.84
2022-11-30T02:29:58.708Z,98727.69
2022-11-30T02:33:04.584Z,98731.84
2022-11-30T02:35:34.784Z,98733.34
2022-11-30T02:38:03.362Z,98733.91
2022-11-30T02:40:30.331Z,98732.66
2022-11-30T02:43:00.103Z,98730.59
2022-11-30T02:45:31.721Z,98735.13
2022-11-30T02:48:07.843Z,98731.03
2022-11-30T02:50:41.058Z,98728.19
2022-11-30T02:53:09.598Z,98729.69
2022-11-30T02:55:36.104Z,98734.78
2022-11-30T02:58:02.604Z,98735.22
2022-11-30T03:00:29.068Z,98729.44
2022-11-30T03:02:55.560Z,98732.53
2022-11-30T03:05:22.150Z,98735.22
2022-11-30T03:07:48.621Z,98735.56
2022-11-30T03:10:15.390Z,98729.78
2022-11-30T03:12:41.786Z,98730.16
2022-11-30T03:15:08.874Z,98729.53
2022-11-30T03:17:35.394Z,98736.31
2022-11-30T03:20:02.021Z,98735.34
2022-11-30T03:22:28.434Z,98733.47
2022-11-30T03:24:55.058Z,98735.41
2022-11-30T03:27:21.559Z,98732.28
2022-11-30T03:29:48.046Z,98736.00
2022-11-30T03:32:14.497Z,98736.00
2022-11-30T03:34:41.198Z,98733.09
2022-11-30T03:37:07.698Z,98745.06
2022-11-30T03:39:34.454Z,98749.16
2022-11-30T03:42:00.893Z,98753.50
2022-11-30T03:44:27.432Z,98749.97
2022-11-30T03:46:53.896Z,98743.00
2022-11-30T03:49:20.396Z,98740.13
2022-11-30T03:51:46.936Z,98739.25
2022-11-30T03:54:13.622Z,98738.81
2022-11-30T03:56:40.201Z,98744.41
2022-11-30T03:59:06.712Z,98743.44
2022-11-30T04:01:33.476Z,98738.38
2022-11-30T04:03:59.918Z,98737.81
2022-11-30T04:06:26.435Z,98737.44
2022-11-30T04:08:52.952Z,98724.88
2022-11-30T04:11:19.511Z,98731.84
2022-11-30T04:13:45.964Z,98733.47
2022-11-30T04:16:12.444Z,98727.53
2022-11-30T04:18:39.444Z,98729.41
2022-11-30T04:21:07.284Z,98726.50
2022-11-30T04:23:38.841Z,98722.41
2022-11-30T04:26:07.934Z,98728.56
2022-11-30T04:28:35.222Z,98737.63
2022-11-30T04:31:02.828Z,98738.06
2022-11-30T04:33:29.932Z,98740.31
2022-11-30T04:35:59.592Z,98737.03
2022-11-30T04:38:26.362Z,98734.75
2022-11-30T04:40:53.585Z,98744.75
2022-11-30T04:43:20.833Z,98741.03
2022-11-30T04:45:47.785Z,98743.06
2022-11-30T04:48:15.949Z,98743.06
2022-11-30T04:50:42.496Z,98740.81
2022-11-30T04:53:09.234Z,98748.22
2022-11-30T04:55:37.849Z,98748.47
2022-11-30T04:58:05.548Z,98751.78
2022-11-30T05:00:32.304Z,98748.47
2022-11-30T05:02:58.766Z,98753.81
2022-11-30T05:05:25.243Z,98749.66
2022-11-30T05:07:56.993Z,98745.78
2022-11-30T05:10:24.397Z,98739.84
2022-11-30T05:12:51.316Z,98744.91
2022-11-30T05:15:18.186Z,98752.50
2022-11-30T05:17:44.671Z,98758.28
2022-11-30T05:20:11.454Z,98756.44
2022-11-30T05:22:37.917Z,98758.72
2022-11-30T05:25:04.779Z,98755.19
2022-11-30T05:27:31.216Z,98755.44
2022-11-30T05:29:57.669Z,98757.69
2022-11-30T05:32:24.171Z,98760.81
2022-11-30T05:34:51.964Z,98758.72
2022-11-30T05:37:19.258Z,98755.28
2022-11-30T05:39:45.666Z,98760.19
2022-11-30T05:42:12.149Z,98759.44
2022-11-30T05:44:38.600Z,98749.03
2022-11-30T05:47:05.209Z,98758.28
2022-11-30T05:49:31.722Z,98752.34
2022-11-30T05:51:58.222Z,98746.97
2022-11-30T05:54:24.694Z,98748.06
2022-11-30T05:56:54.717Z,98750.47
2022-11-30T05:59:22.021Z,98744.75
2022-11-30T06:01:48.776Z,98750.53
2022-11-30T06:04:15.359Z,98750.63
2022-11-30T06:06:41.754Z,98754.69
2022-11-30T06:09:08.296Z,98750.78
2022-11-30T06:11:34.808Z,98747.13
2022-11-30T06:14:01.194Z,98750.47
2022-11-30T06:16:27.720Z,98747.38
2022-11-30T06:18:54.209Z,98750.69
2022-11-30T06:21:24.437Z,98744.94
2022-11-30T06:23:52.155Z,98749.97
2022-11-30T06:26:18.579Z,98749.97
2022-11-30T06:28:48.141Z,98750.56
2022-11-30T06:31:15.217Z,98745.94
2022-11-30T06:33:41.745Z,98753.28
2022-11-30T06:36:08.741Z,98756.94
2022-11-30T06:38:35.327Z,98752.28
2022-11-30T06:41:06.360Z,98757.47
2022-11-30T06:43:34.668Z,98752.03
2022-11-30T06:46:01.930Z,98751.72
2022-11-30T06:48:28.511Z,98749.41
2022-11-30T06:50:55.525Z,98743.25
2022-11-30T06:53:21.943Z,98740.59
2022-11-30T06:55:48.345Z,98754.59
2022-11-30T06:58:14.784Z,98746.44
2022-11-30T07:00:41.888Z,98751.97
2022-11-30T07:03:08.562Z,98753.28
2022-11-30T07:05:41.216Z,98753.34
2022-11-30T07:08:07.790Z,98755.13
2022-11-30T07:10:34.462Z,98756.63
2022-11-30T07:13:00.951Z,98764.47
2022-11-30T07:15:27.354Z,98758.69
2022-11-30T07:17:53.746Z,98759.44
2022-11-30T07:20:20.238Z,98755.75
2022-11-30T07:22:46.736Z,98762.72
2022-11-30T07:25:31.573Z,98765.34
2022-11-30T07:27:58.008Z,98766.16
2022-11-30T07:30:24.515Z,98765.16
2022-11-30T07:32:51.030Z,98754.59
2022-11-30T07:35:17.471Z,98761.72
2022-11-30T07:37:43.859Z,98772.19
2022-11-30T07:40:10.646Z,98765.03
2022-11-30T07:42:37.102Z,98764.41
2022-11-30T07:45:03.831Z,98760.47
2022-11-30T07:47:30.247Z,98758.88
2022-11-30T07:49:57.202Z,98767.03
2022-11-30T07:52:23.838Z,98771.75
2022-11-30T07:54:50.752Z,98774.22
2022-11-30T07:57:17.365Z,98769.25
2022-11-30T07:59:43.867Z,98775.78
2022-11-30T08:02:10.914Z,98776.72
2022-11-30T08:04:37.450Z,98769.69
2022-11-30T08:07:03.893Z,98766.66
2022-11-30T08:09:30.440Z,98766.66
2022-11-30T08:11:56.821Z,98770.50
2022-11-30T08:14:23.267Z,98781.22
2022-11-30T08:16:49.792Z,98772.59
2022-11-30T08:19:16.348Z,98782.06
2022-11-30T08:21:42.760Z,98779.69
2022-11-30T08:24:12.067Z,98776.16
2022-11-30T08:26:38.596Z,98782.09
2022-11-30T08:29:05.094Z,98786.13
2022-11-30T08:31:35.353Z,98792.91
2022-11-30T08:34:07.829Z,98784.13
2022-11-30T08:36:35.414Z,98786.69
2022-11-30T08:39:04.966Z,98796.44
2022-11-30T08:41:32.850Z,98788.66
2022-11-30T08:43:59.542Z,98792.09
2022-11-30T08:49:22.063Z,98800.13
2022-11-30T08:54:39.033Z,98794.31
2022-11-30T08:57:05.498Z,98802.19
2022-11-30T08:59:32.113Z,98805.16
2022-11-30T09:01:58.580Z,98800.38
2022-11-30T09:04:25.196Z,98806.34
2022-11-30T09:06:51.682Z,98805.47
2022-11-30T09:09:18.137Z,98803.84
2022-11-30T09:11:44.668Z,98804.28
2022-11-30T09:14:11.270Z,98800.13
2022-11-30T09:16:37.746Z,98809.50
2022-11-30T09:19:04.212Z,98809.41
2022-11-30T09:21:30.795Z,98806.50
2022-11-30T09:23:57.286Z,98811.97
2022-11-30T09:26:25.372Z,98808.31
2022-11-30T09:28:53.404Z,98805.81
2022-11-30T09:31:25.343Z,98818.50
2022-11-30T09:33:52.798Z,98813.19
2022-11-30T09:36:21.790Z,98809.88
2022-11-30T09:38:48.594Z,98814.78
2022-11-30T09:41:28.308Z,98813.84
2022-11-30T09:44:20.184Z,98822.91
2022-11-30T09:46:56.630Z,98816.72
2022-11-30T09:49:29.671Z,98813.91
2022-11-30T09:51:59.559Z,98817.59
2022-11-30T09:54:44.131Z,98824.19
2022-11-30T09:57:33.858Z,98811.16
2022-11-30T10:00:05.104Z,98810.91
2022-11-30T10:02:34.113Z,98809.72
2022-11-30T10:05:01.646Z,98815.53
2022-11-30T10:07:55.740Z,98808.84
2022-11-30T10:10:36.613Z,98803.81
2022-11-30T10:13:23.928Z,98803.22
2022-11-30T10:15:56.097Z,98803.38
2022-11-30T10:18:58.661Z,98802.94
2022-11-30T10:21:45.733Z,98806.78
2022-11-30T10:24:45.006Z,98801.47
2022-11-30T10:27:18.785Z,98800.84
2022-11-30T10:29:45.352Z,98792.81
2022-11-30T10:32:24.208Z,98794.75
2022-11-30T10:35:15.472Z,98792.91
2022-11-30T10:37:42.536Z,98785.97
2022-11-30T10:40:32.179Z,98787.44
2022-11-30T10:43:28.602Z,98786.88
2022-11-30T10:45:55.609Z,98789.00
2022-11-30T10:48:25.918Z,98791.84
2022-11-30T10:50:53.309Z,98788.53
2022-11-30T10:53:20.121Z,98786.19
2022-11-30T10:55:58.742Z,98784.38
2022-11-30T10:58:33.055Z,98776.44
2022-11-30T11:01:11.882Z,98771.25
2022-11-30T11:03:38.561Z,98774.72
2022-11-30T11:06:25.801Z,98775.78
2022-11-30T11:08:52.477Z,98769.56
2022-11-30T11:11:38.965Z,98766.03
2022-11-30T11:14:12.817Z,98768.22
2022-11-30T11:17:04.052Z,98764.13
2022-11-30T11:19:41.927Z,98774.56
2022-11-30T11:22:20.816Z,98772.47
2022-11-30T11:24:49.434Z,98768.47
2022-11-30T11:27:30.901Z,98765.94
2022-11-30T11:30:03.357Z,98763.38
2022-11-30T11:32:31.004Z,98767.25
2022-11-30T11:34:58.244Z,98764.94
2022-11-30T11:37:31.096Z,98768.34
2022-11-30T11:40:03.494Z,98771.44
2022-11-30T11:42:48.329Z,98772.09
2022-11-30T11:45:26.117Z,98775.84
2022-11-30T11:48:02.935Z,98771.22
2022-11-30T11:51:05.507Z,98772.56
2022-11-30T11:54:11.978Z,98774.00
2022-11-30T11:56:38.532Z,98766.06
2022-11-30T11:59:15.698Z,98771.25
2022-11-30T12:01:50.215Z,98766.44
2022-11-30T12:04:31.927Z,98770.13
2022-11-30T12:07:02.435Z,98773.97
2022-11-30T12:09:34.836Z,98779.84
2022-11-30T12:12:01.363Z,98776.56
2022-11-30T12:14:30.331Z,98770.59
2022-11-30T12:17:05.350Z,98765.53
2022-11-30T12:19:42.846Z,98759.97
2022-11-30T12:22:18.087Z,98756.06
2022-11-30T12:24:51.946Z,98755.25
2022-11-30T12:27:43.643Z,98753.53
2022-11-30T12:30:23.485Z,98746.66
2022-11-30T12:33:03.347Z,98752.31
2022-11-30T12:35:56.666Z,98753.06
2022-11-30T12:38:48.288Z,98751.19
2022-11-30T12:41:47.310Z,98745.97
2022-11-30T12:44:28.456Z,98750.72
2022-11-30T12:47:38.534Z,98746.16
2022-11-30T12:50:38.966Z,98745.47
2022-11-30T12:53:28.543Z,98747.94
2022-11-30T12:56:09.665Z,98747.00
2022-11-30T12:58:56.541Z,98750.38
2022-11-30T13:01:51.838Z,98756.91
2022-11-30T13:04:28.466Z,98747.50
2022-11-30T13:07:03.338Z,98753.03
2022-11-30T13:09:47.728Z,98749.41
2022-11-30T13:12:21.850Z,98747.63
2022-11-30T13:14:49.774Z,98754.75
2022-11-30T13:17:18.804Z,98756.66
2022-11-30T13:20:17.483Z,98751.25
2022-11-30T13:23:00.740Z,98751.34
2022-11-30T13:28:41.083Z,98751.47
2022-11-30T13:31:14.875Z,98753.03
2022-11-30T13:33:48.514Z,98763.81
2022-11-30T13:36:24.756Z,98753.59
2022-11-30T13:39:16.743Z,98755.44
2022-11-30T13:41:46.232Z,98757.16
2022-11-30T13:44:32.292Z,98753.94
2022-11-30T13:47:01.549Z,98757.78
2022-11-30T13:49:38.283Z,98750.91
2022-11-30T13:52:23.092Z,98738.94
2022-11-30T13:54:54.608Z,98745.81
2022-11-30T13:57:30.103Z,98746.81
2022-11-30T13:59:58.755Z,98749.56
2022-11-30T14:02:36.260Z,98751.66
2022-11-30T14:05:21.918Z,98747.28
2022-11-30T14:08:00.300Z,98746.19
2022-11-30T14:10:39.150Z,98748.84
2022-11-30T14:13:11.299Z,98743.69
2022-11-30T14:15:41.678Z,98750.09
2022-11-30T14:18:08.049Z,98744.50
2022-11-30T14:21:11.595Z,98745.97
2022-11-30T14:24:13.224Z,98748.91
2022-11-30T14:26:44.729Z,98746.19
2022-11-30T14:29:18.742Z,98747.81
2022-11-30T14:31:48.226Z,98753.41
2022-11-30T14:34:19.734Z,98744.34
2022-11-30T14:36:55.165Z,98743.81
2022-11-30T14:39:31.719Z,98750.59
2022-11-30T14:41:58.413Z,98748.50
2022-11-30T14:44:24.919Z,98744.78
2022-11-30T14:46:51.862Z,98743.22
2022-11-30T14:49:23.540Z,98749.41
2022-11-30T14:51:58.870Z,98747.69
2022-11-30T14:54:44.052Z,98747.56
2022-11-30T14:57:32.167Z,98746.28
2022-11-30T14:59:58.786Z,98745.25
2022-11-30T15:02:31.008Z,98741.75
2022-11-30T15:04:59.009Z,98744.00
2022-11-30T15:07:27.570Z,98752.47
2022-11-30T15:10:03.563Z,98746.50
2022-11-30T15:12:30.337Z,98746.44
2022-11-30T15:15:12.333Z,98748.59
2022-11-30T15:17:51.406Z,98748.88
2022-11-30T15:20:38.274Z,98743.53
2022-11-30T15:23:05.099Z,98749.03
2022-11-30T15:25:56.428Z,98745.31
2022-11-30T15:28:37.798Z,98744.44
2022-11-30T15:31:09.522Z,98743.22
2022-11-30T15:33:47.339Z,98743.22
2022-11-30T15:36:28.255Z,98742.50
2022-11-30T15:39:00.878Z,98743.50
2022-11-30T15:41:27.415Z,98749.03
2022-11-30T15:43:56.534Z,98752.75
2022-11-30T15:46:35.237Z,98753.50
2022-11-30T15:49:29.277Z,98763.56
2022-11-30T15:52:00.080Z,98756.69
2022-11-30T15:55:04.056Z,98761.69
2022-11-30T15:58:00.464Z,98766.63
2022-11-30T16:00:27.822Z,98769.25
2022-11-30T16:03:11.032Z,98769.03
2022-11-30T16:05:39.500Z,98781.34
2022-11-30T16:08:14.619Z,98772.66
2022-11-30T16:10:43.683Z,98782.75
2022-11-30T16:13:14.616Z,98781.75
2022-11-30T16:15:48.372Z,98776.78
2022-11-30T16:18:18.930Z,98787.38
2022-11-30T16:20:48.152Z,98784.72
2022-11-30T16:23:15.571Z,98797.94
2022-11-30T16:25:43.451Z,98792.09
2022-11-30T16:28:11.095Z,98804.22
2022-11-30T16:30:38.516Z,98805.91
2022-11-30T16:33:05.430Z,98813.09
2022-11-30T16:35:42.198Z,98804.31
2022-11-30T16:38:08.703Z,98811.97
2022-11-30T16:40:38.807Z,98815.44
2022-11-30T16:43:05.787Z,98825.75
2022-11-30T16:45:36.985Z,98821.66
2022-11-30T16:48:04.346Z,98829.91
2022-11-30T16:50:34.948Z,98819.69
2022-11-30T16:53:02.561Z,98832.84
2022-11-30T16:55:31.914Z,98825.06
2022-11-30T16:57:58.678Z,98816.41
2022-11-30T17:00:25.138Z,98827.91
2022-11-30T17:03:09.777Z,98826.66
2022-11-30T17:05:37.050Z,98826.25
2022-11-30T17:08:03.874Z,98832.03
2022-11-30T17:10:30.436Z,98825.84
2022-11-30T17:12:56.915Z,98831.59
2022-11-30T17:15:24.536Z,98829.50
2022-11-30T17:17:51.252Z,98832.75
2022-11-30T17:20:18.423Z,98836.03
2022-11-30T17:22:45.379Z,98845.06
2022-11-30T17:25:19.631Z,98839.97
2022-11-30T17:27:47.295Z,98842.84
2022-11-30T17:30:16.565Z,98838.50
2022-11-30T17:32:43.485Z,98836.88
2022-11-30T17:35:10.202Z,98851.28
2022-11-30T17:37:36.740Z,98850.44
2022-11-30T17:40:04.836Z,98851.88
2022-11-30T17:42:31.304Z,98853.16
2022-11-30T17:44:57.850Z,98862.22
2022-11-30T17:47:24.302Z,98858.75
2022-11-30T17:49:51.073Z,98859.41
2022-11-30T17:52:17.534Z,98858.56
2022-11-30T17:54:44.030Z,98864.94
2022-11-30T17:57:10.497Z,98861.00
2022-11-30T17:59:36.939Z,98861.84
2022-11-30T18:02:03.430Z,98862.88
2022-11-30T18:04:29.850Z,98863.25
2022-11-30T18:06:56.349Z,98861.16
2022-11-30T18:09:24.349Z,98866.09
2022-11-30T18:11:50.815Z,98869.84
2022-11-30T18:14:17.325Z,98873.56
2022-11-30T18:16:43.906Z,98871.56
2022-11-30T18:19:14.831Z,98876.06
2022-11-30T18:21:44.172Z,98874.78
2022-11-30T18:24:12.359Z,98875.44
2022-11-30T18:26:39.689Z,98873.59
2022-11-30T18:29:06.960Z,98874.88
2022-11-30T18:31:33.673Z,98871.56
2022-11-30T18:34:02.963Z,98869.91
2022-11-30T18:36:29.738Z,98879.56
2022-11-30T18:38:56.472Z,98873.81
2022-11-30T18:41:25.914Z,98883.47
2022-11-30T18:43:53.595Z,98887.19
2022-11-30T18:46:20.353Z,98885.53
2022-11-30T18:48:52.840Z,98875.66
2022-11-30T18:51:22.020Z,98887.59
2022-11-30T18:53:48.458Z,98881.41
2022-11-30T18:56:17.730Z,98881.44
2022-11-30T18:58:45.702Z,98876.50
2022-11-30T19:01:18.203Z,98884.28
2022-11-30T19:03:53.584Z,98881.81
2022-11-30T19:06:21.079Z,98885.28
2022-11-30T19:08:48.288Z,98873.59
2022-11-30T19:11:16.546Z,98880.22
2022-11-30T19:13:43.800Z,98886.78
2022-11-30T19:16:13.620Z,98883.50
2022-11-30T19:18:40.946Z,98879.81
2022-11-30T19:21:13.191Z,98877.38
2022-11-30T19:23:40.227Z,98876.94
2022-11-30T19:26:08.547Z,98887.44
2022-11-30T19:28:36.584Z,98892.56
2022-11-30T19:31:15.028Z,98887.03
2022-11-30T19:33:43.394Z,98882.28
2022-11-30T19:36:25.682Z,98890.94
2022-11-30T19:38:52.443Z,98893.19
2022-11-30T19:41:20.353Z,98894.63
2022-11-30T19:43:53.969Z,98896.69
2022-11-30T19:46:23.852Z,98898.09
2022-11-30T19:48:56.051Z,98897.72
2022-11-30T19:51:22.483Z,98897.50
2022-11-30T19:53:55.621Z,98893.19
2022-11-30T19:56:23.395Z,98901.19
2022-11-30T19:58:50.584Z,98897.50
2022-11-30T20:01:20.046Z,98899.56
2022-11-30T20:03:46.622Z,98906.94
2022-11-30T20:06:13.335Z,98908.19
2022-11-30T20:08:40.314Z,98912.28
2022-11-30T20:11:07.829Z,98909.41
2022-11-30T20:13:34.332Z,98910.25
2022-11-30T20:16:07.219Z,98911.28
2022-11-30T20:18:33.828Z,98914.34
2022-11-30T20:21:13.754Z,98923.81
2022-11-30T20:23:41.603Z,98926.25
2022-11-30T20:26:15.318Z,98926.44
2022-11-30T20:28:42.793Z,98924.22
2022-11-30T20:31:11.607Z,98925.44
2022-11-30T20:33:38.641Z,98923.81
2022-11-30T20:36:07.296Z,98915.78
2022-11-30T20:38:34.083Z,98927.06
2022-11-30T20:41:00.978Z,98925.03
2022-11-30T20:43:27.521Z,98929.13
2022-11-30T20:45:54.016Z,98926.03
2022-11-30T20:48:20.479Z,98925.84
2022-11-30T20:51:01.099Z,98933.66
2022-11-30T20:53:27.752Z,98931.38
2022-11-30T20:55:54.166Z,98928.72
2022-11-30T20:58:25.054Z,98931.38
2022-11-30T21:00:51.525Z,98923.78
2022-11-30T21:03:18.027Z,98922.56
2022-11-30T21:05:44.749Z,98925.00
2022-11-30T21:08:11.266Z,98925.84
2022-11-30T21:10:39.756Z,98924.81
2022-11-30T21:13:06.365Z,98922.16
2022-11-30T21:15:32.820Z,98926.88
2022-11-30T21:17:59.234Z,98925.81
2022-11-30T21:20:25.955Z,98917.44
2022-11-30T21:22:52.438Z,98926.47
2022-11-30T21:25:19.048Z,98929.94
2022-11-30T21:27:50.914Z,98934.47
2022-11-30T21:30:17.488Z,98921.94
2022-11-30T21:32:43.974Z,98924.59
2022-11-30T21:35:10.427Z,98922.34
2022-11-30T21:37:36.869Z,98925.22
2022-11-30T21:40:03.828Z,98917.63
2022-11-30T21:42:30.240Z,98919.69
2022-11-30T21:44:56.715Z,98918.22
2022-11-30T21:47:23.131Z,98913.94
2022-11-30T21:49:49.564Z,98911.06
2022-11-30T21:52:16.058Z,98916.41
2022-11-30T21:54:42.535Z,98911.06
2022-11-30T21:57:09.107Z,98909.00
2022-11-30T21:59:35.524Z,98904.72
2022-11-30T22:02:01.909Z,98913.31
2022-11-30T22:04:28.468Z,98917.22
2022-11-30T22:06:54.979Z,98916.63
2022-11-30T22:09:21.380Z,98913.94
2022-11-30T22:11:47.882Z,98906.13
2022-11-30T22:14:16.887Z,98914.78
2022-11-30T22:16:43.813Z,98912.28
2022-11-30T22:19:10.479Z,98907.34
2022-11-30T22:21:36.998Z,98904.91
2022-11-30T22:24:06.502Z,98906.13
2022-11-30T22:26:38.915Z,98908.59
2022-11-30T22:29:16.054Z,98909.19
2022-11-30T22:31:44.610Z,98918.06
2022-11-30T22:34:11.733Z,98910.66
2022-11-30T22:36:40.392Z,98900.19
2022-11-30T22:39:10.666Z,98903.66
2022-11-30T22:41:37.507Z,98903.84
2022-11-30T22:44:04.220Z,98903.66
2022-11-30T22:46:33.055Z,98912.91
2022-11-30T22:49:03.671Z,98909.19
2022-11-30T22:51:31.805Z,98904.09
2022-11-30T22:53:59.229Z,98903.69
2022-11-30T22:56:34.078Z,98896.06
2022-11-30T22:59:01.231Z,98899.97
2022-11-30T23:01:28.886Z,98900.19
2022-11-30T23:03:57.278Z,98909.59
2022-11-30T23:06:24.688Z,98904.28
2022-11-30T23:08:52.145Z,98904.47
2022-11-30T23:11:22.934Z,98904.09
2022-11-30T23:13:49.667Z,98905.94
2022-11-30T23:16:17.009Z,98909.00
2022-11-30T23:18:49.558Z,98907.56
2022-11-30T23:21:22.212Z,98907.38
2022-11-30T23:23:49.447Z,98911.88
2022-11-30T23:26:18.348Z,98914.34
2022-11-30T23:28:47.468Z,98913.13
2022-11-30T23:31:34.114Z,98904.47
2022-11-30T23:34:07.579Z,98900.81
2022-11-30T23:36:35.265Z,98907.59
2022-11-30T23:39:14.755Z,98901.59
2022-11-30T23:41:41.274Z,98898.94
2022-11-30T23:44:08.646Z,98902.00
2022-11-30T23:46:36.167Z,98904.09
2022-11-30T23:49:03.061Z,98904.09
2022-11-30T23:51:29.527Z,98910.25
2022-11-30T23:53:56.082Z,98901.22
2022-11-30T23:56:23.957Z,98893.00
2022-11-30T23:58:50.975Z,98899.16
